createdAt,value
2023-03-13T00:01:25.131Z,47.31
2023-03-13T00:03:27.216Z,47.66
2023-03-13T00:05:28.668Z,47.82
2023-03-13T00:07:30.201Z,47.47
2023-03-13T00:09:31.695Z,47.69
2023-03-13T00:11:33.512Z,47.88
2023-03-13T00:13:35.317Z,48.11
2023-03-13T00:15:36.833Z,47.46
2023-03-13T00:17:38.339Z,47.77
2023-03-13T00:19:39.793Z,48.25
2023-03-13T00:21:41.604Z,48.32
2023-03-13T00:23:43.259Z,48.23
2023-03-13T00:25:44.858Z,48.26
2023-03-13T00:27:46.380Z,48.40
2023-03-13T00:29:47.946Z,48.49
2023-03-13T00:31:49.500Z,48.40
2023-03-13T00:33:53.411Z,48.74
2023-03-13T00:35:58.757Z,48.92
2023-03-13T00:38:00.468Z,48.96
2023-03-13T00:40:02.013Z,48.99
2023-03-13T00:42:04.031Z,48.46
2023-03-13T00:44:05.542Z,49.08
2023-03-13T00:46:07.441Z,48.62
2023-03-13T00:48:09.028Z,48.87
2023-03-13T00:50:10.818Z,48.68
2023-03-13T00:52:12.361Z,48.38
2023-03-13T00:54:13.854Z,48.80
2023-03-13T00:56:16.162Z,48.62
2023-03-13T00:58:17.731Z,48.77
2023-03-13T01:00:19.535Z,48.62
2023-03-13T01:02:21.081Z,48.78
2023-03-13T01:04:22.665Z,48.72
2023-03-13T01:06:25.934Z,48.81
2023-03-13T01:08:27.726Z,48.70
2023-03-13T01:10:29.218Z,48.95
2023-03-13T01:12:30.715Z,48.67
2023-03-13T01:14:32.275Z,48.39
2023-03-13T01:16:34.477Z,48.56
2023-03-13T01:18:36.631Z,48.54
2023-03-13T01:20:38.622Z,48.09
2023-03-13T01:22:40.202Z,48.46
2023-03-13T01:24:41.778Z,48.47
2023-03-13T01:26:43.258Z,48.32
2023-03-13T01:28:44.924Z,48.67
2023-03-13T01:30:46.412Z,49.69
2023-03-13T01:32:47.926Z,50.13
2023-03-13T01:34:49.413Z,49.29
2023-03-13T01:36:52.415Z,49.60
2023-03-13T01:38:54.959Z,49.05
2023-03-13T01:40:56.515Z,49.52
2023-03-13T01:42:59.122Z,49.43
2023-03-13T01:45:00.581Z,49.52
2023-03-13T01:47:02.134Z,49.74
2023-03-13T01:49:17.492Z,50.01
2023-03-13T01:51:23.819Z,50.08
2023-03-13T01:53:25.261Z,50.06
2023-03-13T01:55:26.772Z,50.07
2023-03-13T01:57:29.758Z,49.89
2023-03-13T01:59:33.016Z,50.24
2023-03-13T02:01:34.679Z,49.58
2023-03-13T02:03:36.213Z,49.82
2023-03-13T02:05:37.750Z,49.79
2023-03-13T02:07:40.464Z,49.20
2023-03-13T02:09:42.376Z,49.11
2023-03-13T02:11:57.828Z,50.01
2023-03-13T02:13:59.405Z,50.18
2023-03-13T02:16:01.209Z,50.49
2023-03-13T02:18:02.841Z,50.60
2023-03-13T02:20:05.149Z,50.22
2023-03-13T02:22:06.628Z,50.50
2023-03-13T02:24:08.152Z,50.77
2023-03-13T02:26:09.643Z,51.15
2023-03-13T02:28:46.389Z,51.86
2023-03-13T02:30:48.500Z,51.23
2023-03-13T02:32:50.108Z,50.84
2023-03-13T02:34:51.823Z,50.40
2023-03-13T02:36:53.339Z,50.91
2023-03-13T02:38:59.754Z,50.80
2023-03-13T02:41:01.596Z,51.26
2023-03-13T02:43:05.864Z,51.32
2023-03-13T02:45:07.669Z,51.57
2023-03-13T02:47:10.033Z,51.30
2023-03-13T02:49:17.349Z,51.42
2023-03-13T02:51:18.751Z,51.43
2023-03-13T02:53:20.282Z,51.54
2023-03-13T02:55:25.328Z,51.81
2023-03-13T02:57:26.866Z,51.83
2023-03-13T02:59:28.379Z,51.96
2023-03-13T03:01:29.872Z,51.86
2023-03-13T03:03:31.341Z,52.30
2023-03-13T03:05:32.897Z,52.06
2023-03-13T03:07:34.398Z,52.78
2023-03-13T03:09:35.880Z,53.03
2023-03-13T03:11:38.948Z,53.20
2023-03-13T03:13:41.259Z,52.73
2023-03-13T03:15:42.795Z,52.69
2023-03-13T03:17:44.385Z,53.40
2023-03-13T03:19:45.830Z,54.65
2023-03-13T03:21:49.566Z,55.41
2023-03-13T03:23:51.526Z,55.52
2023-03-13T03:25:53.086Z,56.62
2023-03-13T03:27:54.515Z,56.71
2023-03-13T03:29:55.966Z,57.31
2023-03-13T03:31:57.484Z,58.16
2023-03-13T03:33:59.061Z,57.80
2023-03-13T03:36:01.412Z,56.58
2023-03-13T03:38:02.906Z,56.11
2023-03-13T03:40:06.643Z,55.54
2023-03-13T03:42:09.704Z,55.28
2023-03-13T03:44:11.204Z,54.88
2023-03-13T03:46:12.815Z,54.64
2023-03-13T03:48:14.401Z,54.97
2023-03-13T03:50:16.282Z,56.41
2023-03-13T03:52:18.197Z,56.98
2023-03-13T03:54:19.649Z,58.19
2023-03-13T03:56:21.190Z,59.22
2023-03-13T03:58:22.771Z,58.77
2023-03-13T04:00:24.300Z,58.64
2023-03-13T04:02:25.872Z,58.55
2023-03-13T04:04:27.454Z,58.67
2023-03-13T04:06:28.919Z,58.39
2023-03-13T04:08:30.453Z,59.38
2023-03-13T04:10:31.944Z,58.71
2023-03-13T04:12:33.406Z,59.10
2023-03-13T04:14:34.875Z,58.85
2023-03-13T04:16:36.499Z,58.36
2023-03-13T04:18:38.038Z,58.02
2023-03-13T04:20:39.612Z,57.91
2023-03-13T04:22:42.222Z,57.79
2023-03-13T04:24:43.676Z,57.89
2023-03-13T04:26:45.126Z,57.95
2023-03-13T04:28:46.628Z,58.27
2023-03-13T04:30:48.139Z,57.45
2023-03-13T04:32:51.199Z,57.05
2023-03-13T04:34:53.055Z,56.85
2023-03-13T04:36:55.751Z,56.13
2023-03-13T04:38:57.334Z,55.96
2023-03-13T04:40:58.806Z,55.98
2023-03-13T04:43:00.306Z,56.22
2023-03-13T04:45:01.818Z,56.35
2023-03-13T04:47:03.409Z,56.16
2023-03-13T04:49:06.527Z,55.93
2023-03-13T04:51:09.444Z,55.71
2023-03-13T04:53:10.952Z,56.11
2023-03-13T04:55:12.459Z,55.55
2023-03-13T04:57:13.947Z,55.67
2023-03-13T04:59:15.576Z,55.33
2023-03-13T05:01:17.091Z,55.83
2023-03-13T05:03:18.596Z,55.21
2023-03-13T05:05:20.183Z,55.14
2023-03-13T05:07:21.749Z,55.16
2023-03-13T05:09:23.341Z,55.10
2023-03-13T05:11:24.958Z,55.23
2023-03-13T05:13:26.529Z,55.22
2023-03-13T05:15:27.979Z,55.25
2023-03-13T05:17:29.550Z,55.50
2023-03-13T05:19:31.076Z,56.43
2023-03-13T05:21:32.515Z,56.56
2023-03-13T05:23:34.008Z,58.12
2023-03-13T05:25:35.504Z,61.22
2023-03-13T05:27:36.948Z,60.86
2023-03-13T05:29:38.386Z,61.28
2023-03-13T05:32:04.771Z,61.14
2023-03-13T05:34:06.242Z,60.72
2023-03-13T05:36:07.966Z,59.84
2023-03-13T05:38:09.410Z,59.17
2023-03-13T05:40:11.279Z,58.41
2023-03-13T05:42:12.809Z,58.09
2023-03-13T05:44:14.319Z,57.29
2023-03-13T05:46:15.797Z,57.07
2023-03-13T05:48:17.315Z,56.73
2023-03-13T05:50:19.042Z,56.03
2023-03-13T05:52:20.624Z,55.83
2023-03-13T05:54:22.153Z,55.23
2023-03-13T05:56:23.630Z,54.73
2023-03-13T05:58:25.129Z,54.39
2023-03-13T06:00:26.698Z,54.05
2023-03-13T06:02:28.124Z,53.74
2023-03-13T06:04:29.792Z,53.67
2023-03-13T06:06:31.325Z,53.53
2023-03-13T06:08:32.814Z,53.02
2023-03-13T06:10:34.307Z,52.49
2023-03-13T06:12:36.118Z,52.12
2023-03-13T06:14:40.764Z,52.46
2023-03-13T06:16:42.294Z,51.74
2023-03-13T06:18:43.840Z,50.61
2023-03-13T06:20:45.302Z,49.98
2023-03-13T06:22:46.861Z,49.54
2023-03-13T06:24:49.698Z,49.09
2023-03-13T06:26:51.591Z,49.69
2023-03-13T06:28:53.134Z,50.27
2023-03-13T06:30:55.371Z,50.70
2023-03-13T06:32:58.040Z,51.27
2023-03-13T06:34:59.629Z,50.40
2023-03-13T06:37:01.191Z,49.95
2023-03-13T06:39:03.264Z,49.22
2023-03-13T06:41:04.900Z,48.68
2023-03-13T06:43:06.378Z,48.90
2023-03-13T06:45:08.263Z,47.76
2023-03-13T06:47:09.859Z,47.97
2023-03-13T06:49:11.594Z,48.22
2023-03-13T06:51:13.955Z,48.92
2023-03-13T06:53:16.981Z,49.55
2023-03-13T06:55:18.859Z,50.71
2023-03-13T06:57:20.306Z,51.58
2023-03-13T06:59:21.758Z,51.19
2023-03-13T07:01:23.452Z,51.14
2023-03-13T07:03:25.056Z,50.32
2023-03-13T07:05:26.643Z,50.29
2023-03-13T07:07:32.136Z,50.63
2023-03-13T07:09:34.046Z,51.40
2023-03-13T07:11:35.495Z,50.77
2023-03-13T07:13:37.077Z,50.00
2023-03-13T07:15:38.558Z,49.46
2023-03-13T07:17:40.078Z,49.66
2023-03-13T07:19:41.706Z,49.92
2023-03-13T07:21:44.274Z,49.88
2023-03-13T07:23:45.869Z,49.22
2023-03-13T07:25:57.332Z,48.45
2023-03-13T07:28:01.125Z,47.44
2023-03-13T07:30:02.655Z,47.15
2023-03-13T07:32:04.260Z,47.23
2023-03-13T07:34:05.837Z,46.91
2023-03-13T07:36:09.490Z,46.43
2023-03-13T07:38:11.312Z,47.21
2023-03-13T07:40:13.315Z,46.30
2023-03-13T07:42:14.757Z,46.34
2023-03-13T07:44:16.287Z,46.43
2023-03-13T07:46:21.766Z,47.26
2023-03-13T07:48:24.029Z,47.88
2023-03-13T07:50:25.630Z,47.51
2023-03-13T07:52:28.059Z,47.46
2023-03-13T07:54:29.588Z,46.98
2023-03-13T07:56:31.089Z,46.69
2023-03-13T07:58:34.163Z,46.27
2023-03-13T08:00:35.624Z,46.28
2023-03-13T08:02:37.169Z,45.88
2023-03-13T08:04:38.696Z,46.42
2023-03-13T08:06:41.188Z,46.57
2023-03-13T08:08:43.110Z,46.51
2023-03-13T08:10:45.208Z,45.90
2023-03-13T08:13:31.070Z,44.93
2023-03-13T08:15:32.681Z,45.71
2023-03-13T08:17:34.266Z,45.74
2023-03-13T08:19:35.694Z,46.47
2023-03-13T08:21:37.274Z,47.28
2023-03-13T08:23:39.007Z,48.43
2023-03-13T08:25:43.103Z,48.61
2023-03-13T08:27:44.604Z,48.93
2023-03-13T08:29:46.119Z,48.42
2023-03-13T08:31:48.298Z,48.33
2023-03-13T08:33:49.894Z,48.05
2023-03-13T08:35:51.419Z,47.04
2023-03-13T08:37:52.973Z,46.10
2023-03-13T08:39:56.715Z,47.06
2023-03-13T08:41:58.249Z,46.43
2023-03-13T08:43:59.846Z,46.03
2023-03-13T08:46:01.409Z,44.96
2023-03-13T08:48:02.914Z,45.34
2023-03-13T08:50:04.667Z,44.85
2023-03-13T08:52:06.613Z,44.35
2023-03-13T08:54:08.211Z,44.33
2023-03-13T08:56:10.662Z,43.69
2023-03-13T08:58:12.181Z,43.00
2023-03-13T09:00:14.198Z,43.10
2023-03-13T09:02:20.066Z,42.61
2023-03-13T09:04:21.711Z,42.50
2023-03-13T09:06:23.262Z,42.83
2023-03-13T09:08:24.927Z,43.02
2023-03-13T09:10:26.462Z,42.20
2023-03-13T09:12:31.051Z,41.91
2023-03-13T09:14:35.146Z,43.65
2023-03-13T09:16:38.144Z,43.88
2023-03-13T09:18:39.838Z,44.12
2023-03-13T09:20:43.273Z,44.48
2023-03-13T09:22:45.154Z,44.20
2023-03-13T09:24:46.605Z,43.57
2023-03-13T09:27:00.450Z,43.09
2023-03-13T09:29:02.816Z,42.53
2023-03-13T09:31:23.752Z,42.38
2023-03-13T09:33:25.411Z,42.92
2023-03-13T09:35:26.975Z,42.49
2023-03-13T09:37:28.471Z,43.34
2023-03-13T09:39:29.960Z,43.02
2023-03-13T09:41:37.792Z,42.85
2023-03-13T09:44:08.714Z,42.50
2023-03-13T09:46:24.134Z,42.77
2023-03-13T09:48:30.124Z,41.38
2023-03-13T09:50:35.529Z,42.06
2023-03-13T09:52:41.012Z,40.58
2023-03-13T09:54:44.097Z,40.32
2023-03-13T09:56:46.671Z,40.01
2023-03-13T09:58:55.361Z,39.46
2023-03-13T10:01:03.293Z,39.23
2023-03-13T10:03:04.747Z,39.58
2023-03-13T10:05:26.499Z,39.36
2023-03-13T10:07:27.993Z,39.20
2023-03-13T10:09:32.708Z,39.04
2023-03-13T10:11:38.878Z,40.64
2023-03-13T10:13:43.428Z,41.54
2023-03-13T10:15:57.753Z,41.53
2023-03-13T10:17:59.907Z,40.55
2023-03-13T10:20:08.452Z,42.08
2023-03-13T10:22:19.998Z,41.13
2023-03-13T10:24:27.252Z,40.73
2023-03-13T10:26:29.824Z,40.31
2023-03-13T10:28:31.392Z,40.18
2023-03-13T10:30:35.520Z,40.06
2023-03-13T10:32:37.085Z,39.68
2023-03-13T10:34:51.499Z,39.77
2023-03-13T10:36:59.821Z,39.40
2023-03-13T10:39:01.328Z,38.70
2023-03-13T10:41:07.874Z,39.22
2023-03-13T10:43:22.240Z,39.33
2023-03-13T10:45:25.308Z,38.27
2023-03-13T10:47:27.365Z,38.07
2023-03-13T10:49:29.008Z,38.10
2023-03-13T10:51:33.663Z,37.89
2023-03-13T10:53:35.418Z,38.83
2023-03-13T10:55:37.010Z,38.24
2023-03-13T10:57:38.439Z,37.86
2023-03-13T10:59:40.676Z,38.69
2023-03-13T11:01:42.334Z,39.50
2023-03-13T11:03:44.448Z,39.27
2023-03-13T11:05:58.981Z,39.00
2023-03-13T11:08:07.512Z,39.39
2023-03-13T11:10:17.786Z,40.30
2023-03-13T11:12:20.530Z,40.77
2023-03-13T11:14:22.867Z,40.84
2023-03-13T11:16:26.399Z,40.11
2023-03-13T11:18:33.199Z,40.42
2023-03-13T11:20:35.280Z,40.06
2023-03-13T11:22:46.015Z,40.37
2023-03-13T11:24:53.309Z,39.44
2023-03-13T11:27:13.673Z,40.45
2023-03-13T11:29:20.753Z,39.97
2023-03-13T11:31:25.468Z,40.02
2023-03-13T11:33:35.156Z,39.09
2023-03-13T11:35:36.664Z,39.29
2023-03-13T11:37:38.134Z,39.63
2023-03-13T11:39:48.572Z,39.36
2023-03-13T11:41:56.664Z,39.02
2023-03-13T11:44:05.234Z,38.88
2023-03-13T11:46:06.769Z,38.89
2023-03-13T11:48:20.401Z,39.29
2023-03-13T11:50:24.677Z,39.25
2023-03-13T11:52:29.233Z,39.52
2023-03-13T11:54:35.578Z,39.67
2023-03-13T11:56:37.081Z,39.15
2023-03-13T11:58:57.145Z,39.52
2023-03-13T12:01:04.583Z,38.97
2023-03-13T12:03:10.204Z,38.90
2023-03-13T12:05:13.373Z,37.77
2023-03-13T12:07:14.874Z,37.64
2023-03-13T12:09:17.333Z,36.92
2023-03-13T12:11:18.789Z,38.65
2023-03-13T12:13:21.495Z,39.04
2023-03-13T12:15:30.359Z,38.33
2023-03-13T12:17:36.093Z,38.18
2023-03-13T12:19:39.911Z,37.88
2023-03-13T12:21:53.477Z,38.06
2023-03-13T12:23:58.190Z,37.83
2023-03-13T12:26:02.924Z,37.43
2023-03-13T12:28:24.872Z,37.45
2023-03-13T12:30:43.242Z,37.52
2023-03-13T12:32:50.872Z,37.29
2023-03-13T12:35:08.557Z,36.89
2023-03-13T12:37:15.336Z,37.26
2023-03-13T12:39:26.080Z,37.96
2023-03-13T12:41:31.587Z,37.79
2023-03-13T12:43:33.772Z,37.55
2023-03-13T12:45:36.086Z,37.65
2023-03-13T12:47:54.516Z,36.77
2023-03-13T12:50:16.305Z,38.01
2023-03-13T12:52:24.054Z,38.13
2023-03-13T12:54:28.398Z,38.08
2023-03-13T12:56:29.878Z,37.90
2023-03-13T12:58:35.356Z,37.26
2023-03-13T13:00:39.912Z,37.23
2023-03-13T13:02:41.608Z,37.14
2023-03-13T13:04:44.559Z,37.45
2023-03-13T13:06:55.863Z,36.75
2023-03-13T13:09:07.744Z,35.91
2023-03-13T13:11:27.951Z,36.40
2023-03-13T13:13:31.279Z,35.92
2023-03-13T13:15:32.865Z,36.48
2023-03-13T13:17:43.384Z,36.65
2023-03-13T13:19:46.439Z,36.53
2023-03-13T13:21:48.085Z,36.76
2023-03-13T13:23:53.973Z,37.57
2023-03-13T13:25:56.368Z,37.24
2023-03-13T13:28:10.821Z,37.25
2023-03-13T13:30:18.579Z,36.80
2023-03-13T13:32:20.093Z,37.00
2023-03-13T13:34:36.438Z,37.56
2023-03-13T13:36:41.883Z,37.50
2023-03-13T13:38:43.500Z,37.57
2023-03-13T13:41:03.683Z,37.05
2023-03-13T13:43:05.514Z,36.33
2023-03-13T13:45:16.085Z,36.43
2023-03-13T13:47:22.946Z,36.85
2023-03-13T13:49:33.619Z,36.74
2023-03-13T13:51:36.390Z,36.80
2023-03-13T13:53:54.384Z,36.56
2023-03-13T13:55:58.706Z,36.35
2023-03-13T13:58:04.540Z,35.96
2023-03-13T14:00:22.373Z,35.58
2023-03-13T14:02:24.961Z,35.77
2023-03-13T14:04:45.268Z,36.18
2023-03-13T14:06:48.083Z,36.30
2023-03-13T14:08:49.544Z,35.94
2023-03-13T14:11:05.146Z,35.99
2023-03-13T14:13:17.332Z,36.38
2023-03-13T14:15:21.850Z,36.69
2023-03-13T14:17:23.403Z,36.28
2023-03-13T14:19:25.159Z,36.10
2023-03-13T14:21:27.346Z,35.15
2023-03-13T14:23:49.084Z,35.66
2023-03-13T14:25:50.732Z,35.52
2023-03-13T14:27:52.809Z,34.76
2023-03-13T14:30:09.207Z,34.49
2023-03-13T14:32:10.814Z,34.77
2023-03-13T14:34:12.659Z,35.45
2023-03-13T14:36:14.139Z,35.61
2023-03-13T14:38:19.611Z,35.57
2023-03-13T14:40:24.392Z,35.56
2023-03-13T14:42:25.887Z,35.53
2023-03-13T14:44:28.712Z,35.87
2023-03-13T14:46:31.704Z,36.21
2023-03-13T14:48:33.507Z,35.83
2023-03-13T14:50:35.054Z,35.50
2023-03-13T14:52:37.116Z,35.65
2023-03-13T14:54:52.060Z,35.45
2023-03-13T14:57:11.909Z,35.16
2023-03-13T14:59:17.562Z,35.71
2023-03-13T15:01:26.578Z,35.14
2023-03-13T15:03:29.452Z,35.17
2023-03-13T15:05:31.723Z,34.85
2023-03-13T15:07:43.096Z,34.35
2023-03-13T15:09:45.009Z,33.95
2023-03-13T15:11:54.889Z,33.51
2023-03-13T15:13:56.816Z,33.55
2023-03-13T15:15:58.671Z,33.30
2023-03-13T15:18:00.282Z,33.06
2023-03-13T15:20:01.841Z,33.24
2023-03-13T15:22:03.339Z,33.78
2023-03-13T15:24:14.313Z,33.86
2023-03-13T15:26:15.784Z,33.85
2023-03-13T15:28:18.339Z,33.91
2023-03-13T15:30:21.170Z,34.03
2023-03-13T15:32:22.999Z,34.20
2023-03-13T15:34:25.585Z,34.25
2023-03-13T15:36:27.680Z,34.52
2023-03-13T15:38:29.204Z,34.43
2023-03-13T15:40:33.471Z,34.46
2023-03-13T15:42:35.016Z,34.14
2023-03-13T15:44:36.602Z,33.41
2023-03-13T15:46:38.120Z,33.57
2023-03-13T15:48:40.717Z,33.68
2023-03-13T15:50:42.781Z,33.82
2023-03-13T15:52:44.488Z,34.18
2023-03-13T15:54:46.156Z,34.31
2023-03-13T15:56:48.081Z,34.44
2023-03-13T15:58:49.973Z,34.29
2023-03-13T16:00:51.684Z,34.18
2023-03-13T16:02:53.437Z,34.09
2023-03-13T16:04:56.007Z,34.04
2023-03-13T16:06:58.142Z,33.65
2023-03-13T16:09:00.492Z,33.92
2023-03-13T16:11:02.043Z,33.46
2023-03-13T16:13:03.601Z,33.82
2023-03-13T16:15:05.368Z,34.21
2023-03-13T16:17:16.765Z,34.40
2023-03-13T16:19:18.237Z,35.13
2023-03-13T16:21:21.200Z,35.64
2023-03-13T16:23:22.667Z,36.46
2023-03-13T16:25:24.691Z,36.88
2023-03-13T16:27:27.233Z,37.81
2023-03-13T16:29:28.694Z,38.44
2023-03-13T16:31:31.609Z,38.88
2023-03-13T16:33:33.167Z,39.56
2023-03-13T16:35:34.742Z,39.93
2023-03-13T16:37:36.249Z,40.22
2023-03-13T16:39:37.760Z,40.52
2023-03-13T16:41:39.296Z,40.59
2023-03-13T16:43:40.781Z,40.95
2023-03-13T16:45:42.338Z,41.21
2023-03-13T16:47:44.305Z,41.34
2023-03-13T16:49:47.457Z,41.97
2023-03-13T16:51:49.186Z,41.95
2023-03-13T16:53:51.256Z,41.92
2023-03-13T16:55:52.781Z,42.46
2023-03-13T16:57:57.762Z,42.61
2023-03-13T16:59:59.180Z,42.69
2023-03-13T17:02:00.622Z,42.79
2023-03-13T17:04:02.240Z,42.59
2023-03-13T17:06:03.850Z,42.82
2023-03-13T17:08:05.816Z,43.10
2023-03-13T17:10:14.758Z,43.37
2023-03-13T17:12:16.527Z,43.59
2023-03-13T17:14:17.947Z,43.78
2023-03-13T17:16:24.020Z,44.13
2023-03-13T17:18:25.512Z,44.31
2023-03-13T17:20:28.187Z,44.20
2023-03-13T17:22:29.658Z,44.03
2023-03-13T17:24:31.115Z,43.97
2023-03-13T17:26:33.531Z,43.91
2023-03-13T17:28:35.042Z,42.96
2023-03-13T17:30:36.532Z,42.56
2023-03-13T17:32:38.089Z,42.04
2023-03-13T17:34:40.045Z,41.46
2023-03-13T17:36:41.815Z,44.50
2023-03-13T17:38:43.465Z,45.00
2023-03-13T17:40:44.931Z,44.46
2023-03-13T17:42:46.434Z,45.43
2023-03-13T17:44:48.023Z,42.94
2023-03-13T17:46:51.144Z,40.79
2023-03-13T17:48:53.175Z,40.78
2023-03-13T17:50:54.604Z,38.69
2023-03-13T17:52:56.369Z,38.03
2023-03-13T17:54:57.903Z,38.56
2023-03-13T17:56:59.343Z,37.66
2023-03-13T17:59:00.877Z,37.26
2023-03-13T18:01:02.342Z,36.40
2023-03-13T18:03:03.970Z,35.96
2023-03-13T18:05:05.802Z,35.56
2023-03-13T18:07:17.561Z,35.36
2023-03-13T18:09:20.762Z,34.61
2023-03-13T18:11:23.322Z,34.58
2023-03-13T18:13:24.747Z,34.10
2023-03-13T18:15:26.310Z,33.06
2023-03-13T18:17:28.015Z,33.34
2023-03-13T18:19:29.461Z,33.04
2023-03-13T18:21:30.990Z,33.75
2023-03-13T18:23:32.454Z,33.90
2023-03-13T18:25:34.103Z,33.89
2023-03-13T18:27:35.777Z,33.73
2023-03-13T18:29:37.251Z,32.67
2023-03-13T18:31:41.771Z,33.49
2023-03-13T18:33:43.398Z,34.74
2023-03-13T18:35:44.934Z,35.24
2023-03-13T18:37:47.022Z,34.43
2023-03-13T18:39:50.086Z,33.84
2023-03-13T18:41:52.792Z,32.35
2023-03-13T18:43:54.460Z,34.01
2023-03-13T18:45:55.984Z,33.82
2023-03-13T18:47:57.480Z,33.78
2023-03-13T18:49:59.117Z,34.03
2023-03-13T18:52:00.634Z,33.98
2023-03-13T18:54:02.065Z,34.33
2023-03-13T18:56:06.235Z,33.96
2023-03-13T18:58:10.144Z,34.83
2023-03-13T19:00:19.303Z,35.11
2023-03-13T19:02:21.043Z,35.02
2023-03-13T19:04:22.573Z,35.28
2023-03-13T19:06:25.235Z,35.75
2023-03-13T19:08:26.757Z,36.66
2023-03-13T19:10:29.482Z,36.48
2023-03-13T19:12:31.043Z,36.66
2023-03-13T19:14:32.665Z,36.40
2023-03-13T19:16:45.325Z,36.97
2023-03-13T19:18:47.100Z,37.33
2023-03-13T19:20:49.962Z,37.25
2023-03-13T19:22:51.425Z,37.10
2023-03-13T19:24:53.090Z,37.44
2023-03-13T19:26:58.623Z,37.82
2023-03-13T19:29:00.311Z,37.78
2023-03-13T19:31:01.736Z,38.21
2023-03-13T19:33:03.269Z,38.05
2023-03-13T19:35:04.957Z,39.14
2023-03-13T19:37:06.406Z,39.47
2023-03-13T19:39:13.243Z,39.57
2023-03-13T19:41:15.202Z,39.92
2023-03-13T19:43:16.655Z,39.83
2023-03-13T19:45:19.194Z,39.71
2023-03-13T19:47:20.654Z,39.75
2023-03-13T19:49:22.052Z,39.65
2023-03-13T19:51:23.837Z,40.24
2023-03-13T19:53:25.324Z,40.18
2023-03-13T19:55:26.805Z,40.97
2023-03-13T19:57:28.269Z,41.59
2023-03-13T19:59:31.951Z,41.68
2023-03-13T20:01:33.490Z,41.11
2023-03-13T20:03:34.931Z,41.68
2023-03-13T20:05:36.833Z,42.23
2023-03-13T20:07:38.450Z,42.24
2023-03-13T20:09:39.950Z,41.83
2023-03-13T20:11:41.492Z,41.85
2023-03-13T20:13:43.214Z,41.73
2023-03-13T20:15:44.878Z,41.97
2023-03-13T20:17:46.491Z,42.03
2023-03-13T20:19:48.180Z,41.71
2023-03-13T20:21:49.642Z,40.81
2023-03-13T20:23:51.403Z,43.13
2023-03-13T20:25:52.941Z,42.46
2023-03-13T20:27:54.614Z,42.46
2023-03-13T20:29:56.143Z,42.78
2023-03-13T20:32:01.378Z,42.16
2023-03-13T20:34:02.883Z,43.38
2023-03-13T20:36:09.427Z,43.76
2023-03-13T20:38:11.050Z,43.35
2023-03-13T20:40:12.782Z,43.45
2023-03-13T20:42:16.545Z,42.00
2023-03-13T20:44:18.248Z,41.90
2023-03-13T20:46:20.056Z,43.20
2023-03-13T20:48:21.704Z,43.21
2023-03-13T20:50:23.388Z,42.29
2023-03-13T20:52:24.805Z,42.60
2023-03-13T20:54:26.265Z,42.91
2023-03-13T20:56:28.038Z,43.35
2023-03-13T20:58:29.513Z,43.81
2023-03-13T21:00:31.089Z,43.73
2023-03-13T21:02:33.132Z,43.51
2023-03-13T21:04:34.589Z,43.03
2023-03-13T21:06:36.055Z,43.73
2023-03-13T21:08:38.640Z,43.94
2023-03-13T21:10:40.681Z,44.04
2023-03-13T21:12:42.132Z,44.01
2023-03-13T21:14:44.194Z,44.19
2023-03-13T21:16:45.714Z,44.29
2023-03-13T21:18:47.574Z,44.29
2023-03-13T21:20:49.172Z,44.28
2023-03-13T21:22:50.663Z,44.25
2023-03-13T21:24:52.099Z,44.09
2023-03-13T21:26:55.101Z,44.65
2023-03-13T21:28:56.650Z,44.46
2023-03-13T21:30:58.263Z,44.53
2023-03-13T21:32:59.850Z,44.59
2023-03-13T21:35:01.410Z,44.49
2023-03-13T21:37:02.919Z,44.20
2023-03-13T21:39:08.035Z,44.29
2023-03-13T21:41:14.542Z,44.60
2023-03-13T21:43:16.000Z,44.43
2023-03-13T21:45:17.432Z,44.16
2023-03-13T21:47:24.297Z,44.47
2023-03-13T21:49:25.976Z,45.28
2023-03-13T21:51:27.654Z,46.04
2023-03-13T21:53:29.129Z,47.00
2023-03-13T21:55:31.759Z,47.42
2023-03-13T21:57:33.359Z,47.40
2023-03-13T21:59:34.874Z,47.62
2023-03-13T22:01:36.564Z,47.49
2023-03-13T22:03:38.308Z,47.65
2023-03-13T22:05:40.677Z,48.15
2023-03-13T22:07:42.411Z,48.13
2023-03-13T22:09:43.973Z,47.89
2023-03-13T22:11:45.497Z,48.13
2023-03-13T22:13:47.016Z,47.96
2023-03-13T22:15:48.538Z,48.77
2023-03-13T22:17:49.986Z,48.57
2023-03-13T22:19:51.532Z,48.46
2023-03-13T22:21:53.037Z,47.95
2023-03-13T22:23:54.481Z,48.19
2023-03-13T22:25:56.567Z,48.53
2023-03-13T22:27:58.052Z,49.09
2023-03-13T22:29:59.581Z,48.78
2023-03-13T22:32:01.651Z,48.83
2023-03-13T22:34:03.398Z,48.89
2023-03-13T22:36:05.085Z,48.49
2023-03-13T22:38:06.680Z,48.73
2023-03-13T22:40:08.476Z,48.67
2023-03-13T22:42:09.905Z,48.85
2023-03-13T22:44:11.386Z,48.78
2023-03-13T22:46:12.894Z,49.07
2023-03-13T22:48:14.450Z,48.62
2023-03-13T22:50:16.028Z,48.68
2023-03-13T22:52:17.610Z,49.20
2023-03-13T22:54:19.082Z,49.03
2023-03-13T22:56:20.557Z,48.67
2023-03-13T22:58:22.077Z,49.05
2023-03-13T23:00:23.489Z,49.42
2023-03-13T23:02:25.283Z,49.58
2023-03-13T23:04:26.803Z,49.43
2023-03-13T23:06:28.517Z,49.76
2023-03-13T23:08:29.958Z,49.38
2023-03-13T23:10:31.418Z,49.77
2023-03-13T23:12:33.261Z,49.88
2023-03-13T23:14:34.852Z,49.80
2023-03-13T23:16:36.649Z,49.94
2023-03-13T23:18:38.541Z,50.07
2023-03-13T23:20:40.027Z,50.07
2023-03-13T23:22:45.201Z,50.03
2023-03-13T23:24:46.734Z,50.10
2023-03-13T23:26:48.172Z,50.13
2023-03-13T23:28:49.657Z,49.91
2023-03-13T23:30:51.098Z,49.77
2023-03-13T23:32:52.688Z,49.78
2023-03-13T23:34:54.283Z,50.09
2023-03-13T23:36:57.958Z,50.16
2023-03-13T23:38:59.707Z,50.07
2023-03-13T23:41:05.037Z,50.08
2023-03-13T23:43:06.524Z,50.29
2023-03-13T23:45:09.196Z,49.91
2023-03-13T23:47:10.706Z,50.80
2023-03-13T23:49:12.906Z,51.10
2023-03-13T23:51:14.465Z,51.18
2023-03-13T23:53:16.093Z,51.29
2023-03-13T23:55:17.607Z,50.69
2023-03-13T23:57:19.425Z,51.37
2023-03-13T23:59:20.968Z,51.46
